sensor_id;sensor_type;location;lat;lon;timestamp;P1;durP1;ratioP1;P2;durP2;ratioP2
38693;SDS011;24447;43.460;25.744;2023-06-14T00:01:00;7.63;;;4.05;;
38693;SDS011;24447;43.460;25.744;2023-06-14T00:03:28;4.80;;;2.80;;
38693;SDS011;24447;43.460;25.744;2023-06-14T00:05:54;6.95;;;3.40;;
38693;SDS011;24447;43.460;25.744;2023-06-14T00:08:20;6.95;;;3.10;;
38693;SDS011;24447;43.460;25.744;2023-06-14T00:10:48;7.05;;;3.97;;
38693;SDS011;24447;43.460;25.744;2023-06-14T00:13:14;11.00;;;4.40;;
38693;SDS011;24447;43.460;25.744;2023-06-14T00:15:40;8.30;;;4.40;;
38693;SDS011;24447;43.460;25.744;2023-06-14T00:18:06;6.18;;;3.38;;
38693;SDS011;24447;43.460;25.744;2023-06-14T00:20:32;7.25;;;4.00;;
38693;SDS011;24447;43.460;25.744;2023-06-14T00:22:59;6.88;;;3.45;;
38693;SDS011;24447;43.460;25.744;2023-06-14T00:25:25;8.25;;;3.70;;
38693;SDS011;24447;43.460;25.744;2023-06-14T00:27:55;10.32;;;4.00;;
38693;SDS011;24447;43.460;25.744;2023-06-14T00:32:49;7.10;;;3.63;;
38693;SDS011;24447;43.460;25.744;2023-06-14T00:35:16;8.13;;;4.30;;
38693;SDS011;24447;43.460;25.744;2023-06-14T00:37:42;7.43;;;4.30;;
38693;SDS011;24447;43.460;25.744;2023-06-14T00:40:08;6.93;;;3.80;;
38693;SDS011;24447;43.460;25.744;2023-06-14T00:42:34;8.48;;;3.97;;
38693;SDS011;24447;43.460;25.744;2023-06-14T00:45:00;7.85;;;3.90;;
38693;SDS011;24447;43.460;25.744;2023-06-14T00:47:26;9.60;;;4.60;;
38693;SDS011;24447;43.460;25.744;2023-06-14T00:49:55;7.32;;;3.90;;
38693;SDS011;24447;43.460;25.744;2023-06-14T00:52:22;11.73;;;4.50;;
38693;SDS011;24447;43.460;25.744;2023-06-14T00:54:49;6.88;;;3.70;;
38693;SDS011;24447;43.460;25.744;2023-06-14T00:57:15;10.82;;;4.57;;
38693;SDS011;24447;43.460;25.744;2023-06-14T00:59:43;10.85;;;4.72;;
38693;SDS011;24447;43.460;25.744;2023-06-14T01:02:10;10.75;;;4.95;;
38693;SDS011;24447;43.460;25.744;2023-06-14T01:04:37;10.00;;;4.53;;
38693;SDS011;24447;43.460;25.744;2023-06-14T01:07:11;10.07;;;5.28;;
38693;SDS011;24447;43.460;25.744;2023-06-14T01:17:55;14.60;;;4.70;;
38693;SDS011;24447;43.460;25.744;2023-06-14T01:20:28;15.20;;;5.47;;
38693;SDS011;24447;43.460;25.744;2023-06-14T01:22:55;11.27;;;5.13;;
38693;SDS011;24447;43.460;25.744;2023-06-14T01:25:22;11.32;;;5.38;;
38693;SDS011;24447;43.460;25.744;2023-06-14T01:27:49;11.07;;;4.82;;
38693;SDS011;24447;43.460;25.744;2023-06-14T01:30:15;10.50;;;5.05;;
38693;SDS011;24447;43.460;25.744;2023-06-14T01:32:42;10.45;;;4.70;;
38693;SDS011;24447;43.460;25.744;2023-06-14T01:35:08;13.13;;;5.53;;
38693;SDS011;24447;43.460;25.744;2023-06-14T01:37:34;13.85;;;5.72;;
38693;SDS011;24447;43.460;25.744;2023-06-14T01:40:01;11.90;;;5.70;;
38693;SDS011;24447;43.460;25.744;2023-06-14T01:42:28;11.75;;;5.57;;
38693;SDS011;24447;43.460;25.744;2023-06-14T01:44:55;16.02;;;5.95;;
38693;SDS011;24447;43.460;25.744;2023-06-14T01:47:22;13.60;;;5.35;;
38693;SDS011;24447;43.460;25.744;2023-06-14T01:49:48;20.05;;;7.55;;
38693;SDS011;24447;43.460;25.744;2023-06-14T01:52:14;16.52;;;6.85;;
38693;SDS011;24447;43.460;25.744;2023-06-14T01:54:40;11.88;;;5.63;;
38693;SDS011;24447;43.460;25.744;2023-06-14T01:57:07;12.75;;;5.65;;
38693;SDS011;24447;43.460;25.744;2023-06-14T01:59:33;12.95;;;6.65;;
38693;SDS011;24447;43.460;25.744;2023-06-14T02:02:01;14.52;;;6.32;;
38693;SDS011;24447;43.460;25.744;2023-06-14T02:04:28;14.00;;;5.97;;
38693;SDS011;24447;43.460;25.744;2023-06-14T02:06:54;12.40;;;6.20;;
38693;SDS011;24447;43.460;25.744;2023-06-14T02:09:20;17.00;;;6.30;;
38693;SDS011;24447;43.460;25.744;2023-06-14T02:11:46;12.52;;;5.95;;
38693;SDS011;24447;43.460;25.744;2023-06-14T02:14:12;10.50;;;5.95;;
38693;SDS011;24447;43.460;25.744;2023-06-14T02:16:38;12.45;;;5.90;;
38693;SDS011;24447;43.460;25.744;2023-06-14T02:19:04;14.18;;;5.75;;
38693;SDS011;24447;43.460;25.744;2023-06-14T02:21:30;14.73;;;6.60;;
38693;SDS011;24447;43.460;25.744;2023-06-14T02:23:56;17.52;;;7.13;;
38693;SDS011;24447;43.460;25.744;2023-06-14T02:26:23;11.85;;;5.63;;
38693;SDS011;24447;43.460;25.744;2023-06-14T02:28:49;17.70;;;7.47;;
38693;SDS011;24447;43.460;25.744;2023-06-14T02:31:15;17.33;;;7.53;;
38693;SDS011;24447;43.460;25.744;2023-06-14T02:33:41;16.60;;;7.80;;
38693;SDS011;24447;43.460;25.744;2023-06-14T02:36:07;15.75;;;8.07;;
38693;SDS011;24447;43.460;25.744;2023-06-14T02:38:33;21.40;;;7.63;;
38693;SDS011;24447;43.460;25.744;2023-06-14T02:40:59;16.20;;;7.50;;
38693;SDS011;24447;43.460;25.744;2023-06-14T02:43:26;17.70;;;8.20;;
38693;SDS011;24447;43.460;25.744;2023-06-14T02:45:54;19.27;;;7.95;;
38693;SDS011;24447;43.460;25.744;2023-06-14T02:48:20;16.42;;;7.45;;
38693;SDS011;24447;43.460;25.744;2023-06-14T02:50:46;15.10;;;7.38;;
38693;SDS011;24447;43.460;25.744;2023-06-14T02:53:12;14.10;;;7.10;;
38693;SDS011;24447;43.460;25.744;2023-06-14T02:55:38;15.65;;;7.38;;
38693;SDS011;24447;43.460;25.744;2023-06-14T02:58:04;15.68;;;7.22;;
38693;SDS011;24447;43.460;25.744;2023-06-14T03:00:30;17.25;;;7.40;;
38693;SDS011;24447;43.460;25.744;2023-06-14T03:02:56;14.70;;;6.95;;
38693;SDS011;24447;43.460;25.744;2023-06-14T03:05:22;14.13;;;6.40;;
38693;SDS011;24447;43.460;25.744;2023-06-14T03:07:48;15.80;;;7.07;;
38693;SDS011;24447;43.460;25.744;2023-06-14T03:10:15;16.80;;;7.25;;
38693;SDS011;24447;43.460;25.744;2023-06-14T03:12:41;16.25;;;7.57;;
38693;SDS011;24447;43.460;25.744;2023-06-14T03:15:07;16.95;;;6.40;;
38693;SDS011;24447;43.460;25.744;2023-06-14T03:17:34;16.10;;;7.03;;
38693;SDS011;24447;43.460;25.744;2023-06-14T03:20:04;13.32;;;6.03;;
38693;SDS011;24447;43.460;25.744;2023-06-14T03:22:30;16.45;;;7.40;;
38693;SDS011;24447;43.460;25.744;2023-06-14T03:24:59;12.35;;;6.03;;
38693;SDS011;24447;43.460;25.744;2023-06-14T03:27:25;17.02;;;7.00;;
38693;SDS011;24447;43.460;25.744;2023-06-14T03:29:53;19.67;;;6.90;;
38693;SDS011;24447;43.460;25.744;2023-06-14T03:32:19;11.88;;;6.00;;
38693;SDS011;24447;43.460;25.744;2023-06-14T03:34:45;11.80;;;5.55;;
38693;SDS011;24447;43.460;25.744;2023-06-14T03:37:11;13.45;;;5.43;;
38693;SDS011;24447;43.460;25.744;2023-06-14T03:39:40;16.05;;;6.68;;
38693;SDS011;24447;43.460;25.744;2023-06-14T03:42:11;17.25;;;5.53;;
38693;SDS011;24447;43.460;25.744;2023-06-14T03:44:38;15.10;;;6.18;;
38693;SDS011;24447;43.460;25.744;2023-06-14T03:47:04;12.40;;;5.18;;
38693;SDS011;24447;43.460;25.744;2023-06-14T03:49:30;14.25;;;5.55;;
38693;SDS011;24447;43.460;25.744;2023-06-14T03:51:56;12.95;;;5.80;;
38693;SDS011;24447;43.460;25.744;2023-06-14T03:54:23;13.60;;;5.70;;
38693;SDS011;24447;43.460;25.744;2023-06-14T03:56:48;7.88;;;3.83;;
38693;SDS011;24447;43.460;25.744;2023-06-14T03:59:14;7.28;;;3.95;;
38693;SDS011;24447;43.460;25.744;2023-06-14T04:01:40;12.68;;;4.47;;
38693;SDS011;24447;43.460;25.744;2023-06-14T04:04:11;11.00;;;4.40;;
38693;SDS011;24447;43.460;25.744;2023-06-14T04:06:37;6.93;;;3.97;;
38693;SDS011;24447;43.460;25.744;2023-06-14T04:09:06;6.85;;;3.55;;
38693;SDS011;24447;43.460;25.744;2023-06-14T04:11:32;7.70;;;4.15;;
38693;SDS011;24447;43.460;25.744;2023-06-14T04:13:58;7.85;;;4.00;;
38693;SDS011;24447;43.460;25.744;2023-06-14T04:16:24;8.82;;;3.90;;
38693;SDS011;24447;43.460;25.744;2023-06-14T04:18:50;8.77;;;3.85;;
38693;SDS011;24447;43.460;25.744;2023-06-14T04:21:17;7.63;;;3.65;;
38693;SDS011;24447;43.460;25.744;2023-06-14T04:23:43;9.15;;;3.40;;
38693;SDS011;24447;43.460;25.744;2023-06-14T04:26:10;11.80;;;4.70;;
38693;SDS011;24447;43.460;25.744;2023-06-14T04:28:36;9.35;;;3.90;;
38693;SDS011;24447;43.460;25.744;2023-06-14T04:31:06;9.35;;;4.45;;
38693;SDS011;24447;43.460;25.744;2023-06-14T04:33:34;9.60;;;4.15;;
38693;SDS011;24447;43.460;25.744;2023-06-14T04:36:11;9.63;;;3.63;;
38693;SDS011;24447;43.460;25.744;2023-06-14T04:38:38;12.63;;;3.88;;
38693;SDS011;24447;43.460;25.744;2023-06-14T04:41:04;12.27;;;3.80;;
38693;SDS011;24447;43.460;25.744;2023-06-14T04:43:31;11.88;;;4.15;;
38693;SDS011;24447;43.460;25.744;2023-06-14T04:46:06;13.57;;;4.28;;
38693;SDS011;24447;43.460;25.744;2023-06-14T04:48:35;6.38;;;3.80;;
38693;SDS011;24447;43.460;25.744;2023-06-14T04:51:06;8.82;;;3.80;;
38693;SDS011;24447;43.460;25.744;2023-06-14T04:53:33;6.47;;;3.70;;
38693;SDS011;24447;43.460;25.744;2023-06-14T04:55:59;7.78;;;3.75;;
38693;SDS011;24447;43.460;25.744;2023-06-14T04:58:26;9.27;;;3.75;;
38693;SDS011;24447;43.460;25.744;2023-06-14T05:00:53;9.38;;;4.55;;
38693;SDS011;24447;43.460;25.744;2023-06-14T05:03:21;9.57;;;4.28;;
38693;SDS011;24447;43.460;25.744;2023-06-14T05:05:49;6.75;;;3.35;;
38693;SDS011;24447;43.460;25.744;2023-06-14T05:08:15;6.80;;;3.20;;
38693;SDS011;24447;43.460;25.744;2023-06-14T05:10:41;7.25;;;3.75;;
38693;SDS011;24447;43.460;25.744;2023-06-14T05:13:07;6.43;;;3.67;;
38693;SDS011;24447;43.460;25.744;2023-06-14T05:15:33;6.88;;;3.67;;
38693;SDS011;24447;43.460;25.744;2023-06-14T05:17:59;6.50;;;3.20;;
38693;SDS011;24447;43.460;25.744;2023-06-14T05:20:25;8.93;;;3.80;;
38693;SDS011;24447;43.460;25.744;2023-06-14T05:22:54;7.43;;;3.90;;
38693;SDS011;24447;43.460;25.744;2023-06-14T05:25:22;7.55;;;3.63;;
38693;SDS011;24447;43.460;25.744;2023-06-14T05:27:48;8.90;;;3.00;;
38693;SDS011;24447;43.460;25.744;2023-06-14T05:30:14;7.43;;;3.78;;
38693;SDS011;24447;43.460;25.744;2023-06-14T05:32:41;5.70;;;3.25;;
38693;SDS011;24447;43.460;25.744;2023-06-14T05:35:07;6.22;;;3.75;;
38693;SDS011;24447;43.460;25.744;2023-06-14T05:37:33;13.07;;;3.83;;
38693;SDS011;24447;43.460;25.744;2023-06-14T05:39:59;8.40;;;3.25;;
38693;SDS011;24447;43.460;25.744;2023-06-14T05:42:25;6.00;;;3.67;;
38693;SDS011;24447;43.460;25.744;2023-06-14T05:44:51;5.63;;;3.75;;
38693;SDS011;24447;43.460;25.744;2023-06-14T05:47:17;7.70;;;3.40;;
38693;SDS011;24447;43.460;25.744;2023-06-14T05:49:43;6.07;;;3.30;;
38693;SDS011;24447;43.460;25.744;2023-06-14T05:52:09;7.35;;;3.60;;
38693;SDS011;24447;43.460;25.744;2023-06-14T05:54:36;7.82;;;3.45;;
38693;SDS011;24447;43.460;25.744;2023-06-14T05:57:02;7.63;;;2.88;;
38693;SDS011;24447;43.460;25.744;2023-06-14T05:59:29;7.43;;;3.47;;
38693;SDS011;24447;43.460;25.744;2023-06-14T06:01:55;9.35;;;3.78;;
38693;SDS011;24447;43.460;25.744;2023-06-14T06:04:21;4.93;;;3.25;;
38693;SDS011;24447;43.460;25.744;2023-06-14T06:06:48;6.65;;;3.67;;
38693;SDS011;24447;43.460;25.744;2023-06-14T06:09:14;7.28;;;3.20;;
38693;SDS011;24447;43.460;25.744;2023-06-14T06:11:40;8.98;;;3.97;;
38693;SDS011;24447;43.460;25.744;2023-06-14T06:14:06;6.00;;;3.17;;
38693;SDS011;24447;43.460;25.744;2023-06-14T06:16:32;6.25;;;3.35;;
38693;SDS011;24447;43.460;25.744;2023-06-14T06:18:58;4.90;;;3.30;;
38693;SDS011;24447;43.460;25.744;2023-06-14T06:21:24;4.43;;;3.03;;
38693;SDS011;24447;43.460;25.744;2023-06-14T06:23:50;8.85;;;3.55;;
38693;SDS011;24447;43.460;25.744;2023-06-14T06:26:16;7.13;;;3.67;;
38693;SDS011;24447;43.460;25.744;2023-06-14T06:28:42;6.47;;;3.35;;
38693;SDS011;24447;43.460;25.744;2023-06-14T06:31:08;5.07;;;3.58;;
38693;SDS011;24447;43.460;25.744;2023-06-14T06:33:36;7.05;;;3.50;;
38693;SDS011;24447;43.460;25.744;2023-06-14T06:36:01;7.15;;;4.07;;
38693;SDS011;24447;43.460;25.744;2023-06-14T06:38:27;6.10;;;3.58;;
38693;SDS011;24447;43.460;25.744;2023-06-14T06:40:53;18.75;;;4.30;;
38693;SDS011;24447;43.460;25.744;2023-06-14T06:43:20;8.80;;;5.07;;
38693;SDS011;24447;43.460;25.744;2023-06-14T06:45:45;11.50;;;4.47;;
38693;SDS011;24447;43.460;25.744;2023-06-14T06:48:11;16.33;;;5.00;;
38693;SDS011;24447;43.460;25.744;2023-06-14T06:50:37;7.95;;;3.97;;
38693;SDS011;24447;43.460;25.744;2023-06-14T06:53:04;8.93;;;3.92;;
38693;SDS011;24447;43.460;25.744;2023-06-14T06:55:30;17.40;;;5.28;;
38693;SDS011;24447;43.460;25.744;2023-06-14T06:57:56;13.82;;;5.18;;
38693;SDS011;24447;43.460;25.744;2023-06-14T07:00:22;7.60;;;4.55;;
38693;SDS011;24447;43.460;25.744;2023-06-14T07:02:48;8.65;;;4.40;;
38693;SDS011;24447;43.460;25.744;2023-06-14T07:05:14;13.00;;;4.78;;
38693;SDS011;24447;43.460;25.744;2023-06-14T07:07:39;8.88;;;4.63;;
38693;SDS011;24447;43.460;25.744;2023-06-14T07:10:05;7.75;;;4.00;;
38693;SDS011;24447;43.460;25.744;2023-06-14T07:12:32;10.88;;;4.20;;
38693;SDS011;24447;43.460;25.744;2023-06-14T07:15:01;9.73;;;4.78;;
38693;SDS011;24447;43.460;25.744;2023-06-14T07:17:27;10.98;;;5.15;;
38693;SDS011;24447;43.460;25.744;2023-06-14T07:19:53;16.77;;;6.00;;
38693;SDS011;24447;43.460;25.744;2023-06-14T07:22:19;9.18;;;4.70;;
38693;SDS011;24447;43.460;25.744;2023-06-14T07:24:45;9.02;;;4.88;;
38693;SDS011;24447;43.460;25.744;2023-06-14T07:27:11;12.15;;;5.00;;
38693;SDS011;24447;43.460;25.744;2023-06-14T07:29:38;11.80;;;5.10;;
38693;SDS011;24447;43.460;25.744;2023-06-14T07:32:04;8.93;;;4.20;;
38693;SDS011;24447;43.460;25.744;2023-06-14T07:34:30;8.02;;;4.10;;
38693;SDS011;24447;43.460;25.744;2023-06-14T07:36:57;10.32;;;4.07;;
38693;SDS011;24447;43.460;25.744;2023-06-14T07:39:22;7.68;;;4.40;;
38693;SDS011;24447;43.460;25.744;2023-06-14T07:41:48;8.10;;;4.57;;
38693;SDS011;24447;43.460;25.744;2023-06-14T07:44:15;9.20;;;4.50;;
38693;SDS011;24447;43.460;25.744;2023-06-14T07:46:41;7.72;;;4.28;;
38693;SDS011;24447;43.460;25.744;2023-06-14T07:49:07;8.90;;;4.68;;
38693;SDS011;24447;43.460;25.744;2023-06-14T07:51:33;8.48;;;4.20;;
38693;SDS011;24447;43.460;25.744;2023-06-14T07:53:59;14.30;;;4.97;;
38693;SDS011;24447;43.460;25.744;2023-06-14T07:56:27;12.02;;;5.13;;
38693;SDS011;24447;43.460;25.744;2023-06-14T07:58:53;11.23;;;4.75;;
38693;SDS011;24447;43.460;25.744;2023-06-14T08:01:18;10.85;;;4.53;;
38693;SDS011;24447;43.460;25.744;2023-06-14T08:03:45;9.38;;;4.47;;
38693;SDS011;24447;43.460;25.744;2023-06-14T08:06:11;10.50;;;4.60;;
38693;SDS011;24447;43.460;25.744;2023-06-14T08:08:37;10.20;;;4.57;;
38693;SDS011;24447;43.460;25.744;2023-06-14T08:11:03;11.38;;;4.53;;
38693;SDS011;24447;43.460;25.744;2023-06-14T08:13:29;9.60;;;5.32;;
38693;SDS011;24447;43.460;25.744;2023-06-14T08:15:55;8.98;;;4.40;;
38693;SDS011;24447;43.460;25.744;2023-06-14T08:18:22;8.73;;;4.47;;
38693;SDS011;24447;43.460;25.744;2023-06-14T08:20:48;13.65;;;4.13;;
38693;SDS011;24447;43.460;25.744;2023-06-14T08:23:15;8.43;;;4.60;;
38693;SDS011;24447;43.460;25.744;2023-06-14T08:25:44;8.45;;;3.80;;
38693;SDS011;24447;43.460;25.744;2023-06-14T08:28:10;9.90;;;4.45;;
38693;SDS011;24447;43.460;25.744;2023-06-14T08:30:36;7.78;;;3.92;;
38693;SDS011;24447;43.460;25.744;2023-06-14T08:33:02;8.52;;;3.70;;
38693;SDS011;24447;43.460;25.744;2023-06-14T08:35:28;9.07;;;3.50;;
38693;SDS011;24447;43.460;25.744;2023-06-14T08:37:54;12.90;;;3.88;;
38693;SDS011;24447;43.460;25.744;2023-06-14T08:40:22;4.15;;;3.20;;
38693;SDS011;24447;43.460;25.744;2023-06-14T08:42:53;7.40;;;3.78;;
38693;SDS011;24447;43.460;25.744;2023-06-14T08:45:23;6.57;;;3.10;;
38693;SDS011;24447;43.460;25.744;2023-06-14T08:47:53;8.30;;;3.60;;
38693;SDS011;24447;43.460;25.744;2023-06-14T08:52:51;7.93;;;3.85;;
38693;SDS011;24447;43.460;25.744;2023-06-14T08:55:19;7.05;;;3.75;;
38693;SDS011;24447;43.460;25.744;2023-06-14T08:57:51;8.63;;;3.67;;
38693;SDS011;24447;43.460;25.744;2023-06-14T09:00:17;6.90;;;4.10;;
38693;SDS011;24447;43.460;25.744;2023-06-14T09:02:43;5.43;;;3.83;;
38693;SDS011;24447;43.460;25.744;2023-06-14T09:05:10;9.85;;;3.78;;
38693;SDS011;24447;43.460;25.744;2023-06-14T09:07:41;7.93;;;3.75;;
38693;SDS011;24447;43.460;25.744;2023-06-14T09:10:11;5.13;;;3.38;;
38693;SDS011;24447;43.460;25.744;2023-06-14T09:12:38;5.40;;;3.67;;
38693;SDS011;24447;43.460;25.744;2023-06-14T09:15:05;8.27;;;4.05;;
38693;SDS011;24447;43.460;25.744;2023-06-14T09:17:33;4.57;;;3.13;;
38693;SDS011;24447;43.460;25.744;2023-06-14T09:20:02;6.97;;;3.33;;
38693;SDS011;24447;43.460;25.744;2023-06-14T09:22:34;13.38;;;4.20;;
38693;SDS011;24447;43.460;25.744;2023-06-14T09:25:00;7.75;;;3.58;;
38693;SDS011;24447;43.460;25.744;2023-06-14T09:27:27;10.18;;;4.32;;
38693;SDS011;24447;43.460;25.744;2023-06-14T09:29:54;7.10;;;3.60;;
38693;SDS011;24447;43.460;25.744;2023-06-14T09:32:21;4.10;;;2.92;;
38693;SDS011;24447;43.460;25.744;2023-06-14T09:34:47;6.05;;;3.28;;
38693;SDS011;24447;43.460;25.744;2023-06-14T09:37:25;6.10;;;3.35;;
38693;SDS011;24447;43.460;25.744;2023-06-14T09:39:53;11.73;;;3.45;;
38693;SDS011;24447;43.460;25.744;2023-06-14T09:42:19;7.85;;;3.47;;
38693;SDS011;24447;43.460;25.744;2023-06-14T09:44:48;8.38;;;3.58;;
38693;SDS011;24447;43.460;25.744;2023-06-14T09:47:15;10.55;;;3.67;;
38693;SDS011;24447;43.460;25.744;2023-06-14T09:49:41;5.70;;;3.20;;
38693;SDS011;24447;43.460;25.744;2023-06-14T09:52:15;7.03;;;3.13;;
38693;SDS011;24447;43.460;25.744;2023-06-14T09:54:42;4.55;;;3.00;;
38693;SDS011;24447;43.460;25.744;2023-06-14T09:57:11;6.28;;;3.42;;
38693;SDS011;24447;43.460;25.744;2023-06-14T09:59:41;5.10;;;3.00;;
38693;SDS011;24447;43.460;25.744;2023-06-14T10:02:31;9.82;;;3.55;;
38693;SDS011;24447;43.460;25.744;2023-06-14T10:07:35;12.20;;;3.50;;
38693;SDS011;24447;43.460;25.744;2023-06-14T10:10:15;11.82;;;3.30;;
38693;SDS011;24447;43.460;25.744;2023-06-14T10:12:41;9.13;;;3.15;;
38693;SDS011;24447;43.460;25.744;2023-06-14T10:15:10;7.55;;;3.58;;
38693;SDS011;24447;43.460;25.744;2023-06-14T10:17:50;4.20;;;2.97;;
38693;SDS011;24447;43.460;25.744;2023-06-14T10:20:52;4.68;;;3.22;;
38693;SDS011;24447;43.460;25.744;2023-06-14T10:23:29;11.50;;;3.65;;
38693;SDS011;24447;43.460;25.744;2023-06-14T10:25:56;4.72;;;2.97;;
38693;SDS011;24447;43.460;25.744;2023-06-14T10:28:24;5.32;;;3.17;;
38693;SDS011;24447;43.460;25.744;2023-06-14T10:31:10;6.25;;;3.20;;
38693;SDS011;24447;43.460;25.744;2023-06-14T10:33:40;8.38;;;3.35;;
38693;SDS011;24447;43.460;25.744;2023-06-14T10:36:25;6.18;;;3.05;;
38693;SDS011;24447;43.460;25.744;2023-06-14T10:39:18;4.57;;;3.25;;
38693;SDS011;24447;43.460;25.744;2023-06-14T10:41:54;3.80;;;3.28;;
38693;SDS011;24447;43.460;25.744;2023-06-14T10:46:53;6.97;;;3.42;;
38693;SDS011;24447;43.460;25.744;2023-06-14T10:49:19;3.22;;;2.58;;
38693;SDS011;24447;43.460;25.744;2023-06-14T10:51:52;7.28;;;3.50;;
38693;SDS011;24447;43.460;25.744;2023-06-14T10:54:21;10.80;;;3.60;;
38693;SDS011;24447;43.460;25.744;2023-06-14T10:56:51;4.63;;;3.30;;
38693;SDS011;24447;43.460;25.744;2023-06-14T10:59:20;9.15;;;3.10;;
38693;SDS011;24447;43.460;25.744;2023-06-14T11:04:50;10.65;;;3.75;;
38693;SDS011;24447;43.460;25.744;2023-06-14T11:12:55;9.50;;;3.42;;
38693;SDS011;24447;43.460;25.744;2023-06-14T11:15:27;4.82;;;3.20;;
38693;SDS011;24447;43.460;25.744;2023-06-14T11:17:54;6.43;;;3.13;;
38693;SDS011;24447;43.460;25.744;2023-06-14T11:20:24;4.57;;;3.20;;
38693;SDS011;24447;43.460;25.744;2023-06-14T11:22:51;8.77;;;3.20;;
38693;SDS011;24447;43.460;25.744;2023-06-14T11:25:18;5.45;;;3.00;;
38693;SDS011;24447;43.460;25.744;2023-06-14T11:27:44;7.82;;;3.80;;
38693;SDS011;24447;43.460;25.744;2023-06-14T11:30:11;7.50;;;3.03;;
38693;SDS011;24447;43.460;25.744;2023-06-14T11:32:38;5.30;;;3.33;;
38693;SDS011;24447;43.460;25.744;2023-06-14T11:35:05;3.60;;;2.67;;
38693;SDS011;24447;43.460;25.744;2023-06-14T11:37:31;5.53;;;3.28;;
38693;SDS011;24447;43.460;25.744;2023-06-14T11:40:02;5.22;;;2.72;;
38693;SDS011;24447;43.460;25.744;2023-06-14T11:42:36;5.88;;;2.75;;
38693;SDS011;24447;43.460;25.744;2023-06-14T11:45:02;9.00;;;3.92;;
38693;SDS011;24447;43.460;25.744;2023-06-14T11:47:33;4.78;;;3.15;;
38693;SDS011;24447;43.460;25.744;2023-06-14T11:50:00;5.90;;;3.17;;
38693;SDS011;24447;43.460;25.744;2023-06-14T11:52:27;4.97;;;3.38;;
38693;SDS011;24447;43.460;25.744;2023-06-14T11:54:53;6.65;;;3.45;;
38693;SDS011;24447;43.460;25.744;2023-06-14T11:57:19;6.72;;;3.35;;
38693;SDS011;24447;43.460;25.744;2023-06-14T11:59:45;5.82;;;3.20;;
38693;SDS011;24447;43.460;25.744;2023-06-14T12:02:19;6.70;;;3.50;;
38693;SDS011;24447;43.460;25.744;2023-06-14T12:04:47;3.83;;;3.05;;
38693;SDS011;24447;43.460;25.744;2023-06-14T12:07:14;6.25;;;3.28;;
38693;SDS011;24447;43.460;25.744;2023-06-14T12:09:42;6.50;;;3.28;;
38693;SDS011;24447;43.460;25.744;2023-06-14T12:12:34;4.82;;;3.03;;
38693;SDS011;24447;43.460;25.744;2023-06-14T12:20:11;6.03;;;2.97;;
38693;SDS011;24447;43.460;25.744;2023-06-14T12:22:58;6.88;;;3.28;;
38693;SDS011;24447;43.460;25.744;2023-06-14T12:25:33;4.72;;;3.10;;
38693;SDS011;24447;43.460;25.744;2023-06-14T12:28:04;4.95;;;3.03;;
38693;SDS011;24447;43.460;25.744;2023-06-14T12:30:31;5.78;;;2.60;;
38693;SDS011;24447;43.460;25.744;2023-06-14T12:32:58;5.63;;;2.97;;
38693;SDS011;24447;43.460;25.744;2023-06-14T12:35:24;5.35;;;3.00;;
38693;SDS011;24447;43.460;25.744;2023-06-14T12:37:50;6.20;;;3.40;;
38693;SDS011;24447;43.460;25.744;2023-06-14T12:40:15;6.43;;;2.72;;
38693;SDS011;24447;43.460;25.744;2023-06-14T12:42:41;5.95;;;2.97;;
38693;SDS011;24447;43.460;25.744;2023-06-14T12:45:08;4.25;;;2.97;;
38693;SDS011;24447;43.460;25.744;2023-06-14T12:47:34;12.55;;;3.78;;
38693;SDS011;24447;43.460;25.744;2023-06-14T12:50:00;5.25;;;2.95;;
38693;SDS011;24447;43.460;25.744;2023-06-14T12:52:27;7.80;;;2.92;;
38693;SDS011;24447;43.460;25.744;2023-06-14T12:54:53;8.25;;;3.63;;
38693;SDS011;24447;43.460;25.744;2023-06-14T12:57:18;2.90;;;2.47;;
38693;SDS011;24447;43.460;25.744;2023-06-14T12:59:44;6.22;;;3.30;;
38693;SDS011;24447;43.460;25.744;2023-06-14T13:02:15;4.97;;;2.90;;
38693;SDS011;24447;43.460;25.744;2023-06-14T13:04:42;5.93;;;2.78;;
38693;SDS011;24447;43.460;25.744;2023-06-14T13:07:09;6.43;;;2.80;;
38693;SDS011;24447;43.460;25.744;2023-06-14T13:09:39;4.88;;;2.80;;
38693;SDS011;24447;43.460;25.744;2023-06-14T13:12:06;8.75;;;2.97;;
38693;SDS011;24447;43.460;25.744;2023-06-14T13:14:32;3.70;;;2.83;;
38693;SDS011;24447;43.460;25.744;2023-06-14T13:16:58;5.88;;;3.05;;
38693;SDS011;24447;43.460;25.744;2023-06-14T13:19:24;5.22;;;2.75;;
38693;SDS011;24447;43.460;25.744;2023-06-14T13:21:50;7.25;;;3.40;;
38693;SDS011;24447;43.460;25.744;2023-06-14T13:24:16;9.63;;;3.58;;
38693;SDS011;24447;43.460;25.744;2023-06-14T13:26:42;4.20;;;2.97;;
38693;SDS011;24447;43.460;25.744;2023-06-14T13:29:08;8.70;;;3.10;;
38693;SDS011;24447;43.460;25.744;2023-06-14T13:31:34;7.15;;;2.97;;
38693;SDS011;24447;43.460;25.744;2023-06-14T13:34:00;5.13;;;3.15;;
38693;SDS011;24447;43.460;25.744;2023-06-14T13:36:26;9.93;;;3.70;;
38693;SDS011;24447;43.460;25.744;2023-06-14T13:38:52;5.65;;;3.25;;
38693;SDS011;24447;43.460;25.744;2023-06-14T13:41:19;4.78;;;3.05;;
38693;SDS011;24447;43.460;25.744;2023-06-14T13:43:45;7.57;;;3.03;;
38693;SDS011;24447;43.460;25.744;2023-06-14T13:46:11;6.80;;;3.03;;
38693;SDS011;24447;43.460;25.744;2023-06-14T13:48:37;5.80;;;3.13;;
38693;SDS011;24447;43.460;25.744;2023-06-14T13:51:03;8.48;;;3.15;;
38693;SDS011;24447;43.460;25.744;2023-06-14T13:53:29;5.25;;;3.20;;
38693;SDS011;24447;43.460;25.744;2023-06-14T13:55:55;5.63;;;2.80;;
38693;SDS011;24447;43.460;25.744;2023-06-14T13:58:21;6.28;;;2.95;;
38693;SDS011;24447;43.460;25.744;2023-06-14T14:00:49;11.57;;;3.50;;
38693;SDS011;24447;43.460;25.744;2023-06-14T14:03:14;3.97;;;2.83;;
38693;SDS011;24447;43.460;25.744;2023-06-14T14:05:40;6.03;;;2.75;;
38693;SDS011;24447;43.460;25.744;2023-06-14T14:08:06;4.47;;;2.70;;
38693;SDS011;24447;43.460;25.744;2023-06-14T14:10:32;6.82;;;2.90;;
38693;SDS011;24447;43.460;25.744;2023-06-14T14:12:58;7.75;;;3.70;;
38693;SDS011;24447;43.460;25.744;2023-06-14T14:15:24;4.80;;;2.90;;
38693;SDS011;24447;43.460;25.744;2023-06-14T14:17:50;6.70;;;3.20;;
38693;SDS011;24447;43.460;25.744;2023-06-14T14:20:18;9.50;;;3.45;;
38693;SDS011;24447;43.460;25.744;2023-06-14T14:22:44;5.28;;;2.80;;
38693;SDS011;24447;43.460;25.744;2023-06-14T14:25:10;5.45;;;2.47;;
38693;SDS011;24447;43.460;25.744;2023-06-14T14:27:36;8.38;;;2.80;;
38693;SDS011;24447;43.460;25.744;2023-06-14T14:30:03;3.92;;;2.65;;
38693;SDS011;24447;43.460;25.744;2023-06-14T14:32:29;7.13;;;3.38;;
38693;SDS011;24447;43.460;25.744;2023-06-14T14:34:55;6.25;;;3.28;;
38693;SDS011;24447;43.460;25.744;2023-06-14T14:37:21;6.43;;;2.83;;
38693;SDS011;24447;43.460;25.744;2023-06-14T14:39:47;6.10;;;3.15;;
38693;SDS011;24447;43.460;25.744;2023-06-14T14:42:13;5.25;;;3.00;;
38693;SDS011;24447;43.460;25.744;2023-06-14T14:44:39;8.55;;;3.58;;
38693;SDS011;24447;43.460;25.744;2023-06-14T14:47:05;4.43;;;2.60;;
38693;SDS011;24447;43.460;25.744;2023-06-14T14:49:31;7.32;;;2.78;;
38693;SDS011;24447;43.460;25.744;2023-06-14T14:51:57;7.05;;;3.45;;
38693;SDS011;24447;43.460;25.744;2023-06-14T14:54:23;7.18;;;3.25;;
38693;SDS011;24447;43.460;25.744;2023-06-14T14:56:50;4.38;;;3.00;;
38693;SDS011;24447;43.460;25.744;2023-06-14T14:59:16;6.45;;;2.90;;
38693;SDS011;24447;43.460;25.744;2023-06-14T15:01:43;6.88;;;3.17;;
38693;SDS011;24447;43.460;25.744;2023-06-14T15:04:10;4.68;;;2.83;;